Coalgate, Oklahoma
Current Conditions -  °F | °C
As of 1:15 AM on Thursday 18 Dec 2014 (Local Time) from KAQR Reporting Station
Overcast Overcast  
Wind Chill: 34°   Ceiling: 500
Heat Index: 37°   Visibility: 7mi
Dew Point: 37°   Wind: 5mph
Humidity: 100%   Direction: 140°SE
Pressure: 30.17"   Gusts: NA
Location:  34.54°N, 96.22°W
Report Text: KAQR 180715Z AUTO 14004KT 7SM OVC005 03/03 A3017 RMK AO2
Loading
Personal Weather Stations






























Interactive Weather Map New forecast layout! Learn more

10-Day Weather Forecast

Advertisements
Track Severe Weather on mobile